createdAt,value
2023-03-11T00:55:29.191Z,93661.00
2023-03-11T00:56:30.156Z,93665.00
2023-03-11T00:57:30.146Z,93673.00
2023-03-11T00:58:30.156Z,93669.00
2023-03-11T00:59:30.132Z,93671.00
2023-03-11T01:00:30.128Z,93673.00
2023-03-11T01:01:30.171Z,93679.00
2023-03-11T01:02:30.099Z,93687.00
2023-03-11T01:03:30.100Z,93689.00
2023-03-11T01:04:30.134Z,93698.00
2023-03-11T01:05:30.087Z,93704.00
2023-03-11T01:06:39.172Z,93698.00
2023-03-11T01:07:30.062Z,93698.00
2023-03-11T01:08:30.043Z,93698.00
2023-03-11T01:09:30.034Z,93702.00
2023-03-11T01:10:30.029Z,93698.00
2023-03-11T01:11:30.053Z,93698.00
2023-03-11T01:12:30.003Z,93694.00
2023-03-11T01:13:30.003Z,93702.00
2023-03-11T01:14:29.986Z,93712.00
2023-03-11T01:15:29.981Z,93710.00
2023-03-11T01:16:29.971Z,93714.00
2023-03-11T01:17:29.956Z,93720.00
2023-03-11T01:18:29.952Z,93730.00
2023-03-11T01:19:29.941Z,93726.00
2023-03-11T01:20:29.930Z,93714.00
2023-03-11T01:21:29.915Z,93712.00
2023-03-11T01:22:29.913Z,93708.00
2023-03-11T01:23:29.898Z,93708.00
2023-03-11T01:24:29.890Z,93710.00
2023-03-11T01:25:29.901Z,93712.00
2023-03-11T01:26:29.875Z,93722.00
2023-03-11T01:27:29.887Z,93724.00
2023-03-11T01:28:29.847Z,93724.00
2023-03-11T01:29:29.879Z,93726.00
2023-03-11T01:30:29.835Z,93722.00
2023-03-11T01:31:29.836Z,93718.00
2023-03-11T01:32:29.882Z,93720.00
2023-03-11T01:33:29.803Z,93726.00
2023-03-11T01:34:29.797Z,93728.00
2023-03-11T01:35:29.853Z,93728.00
2023-03-11T01:36:29.773Z,93724.00
2023-03-11T01:37:29.766Z,93722.00
2023-03-11T01:38:29.766Z,93726.00
2023-03-11T01:39:29.751Z,93728.00
2023-03-11T01:40:29.736Z,93728.00
2023-03-11T01:41:29.723Z,93724.00
2023-03-11T01:42:29.714Z,93728.00
2023-03-11T01:43:29.733Z,93736.00
2023-03-11T01:44:29.705Z,93736.00
2023-03-11T01:45:29.683Z,93738.00
2023-03-11T01:46:29.724Z,93745.00
2023-03-11T01:47:29.663Z,93747.00
2023-03-11T01:48:29.664Z,93739.00
2023-03-11T01:49:29.652Z,93736.00
2023-03-11T01:50:29.639Z,93749.00
2023-03-11T01:51:29.643Z,93755.00
2023-03-11T01:52:29.629Z,93761.00
2023-03-11T01:53:29.610Z,93765.00
2023-03-11T01:54:29.597Z,93767.00
2023-03-11T01:55:29.588Z,93771.00
2023-03-11T01:56:29.581Z,93785.00
2023-03-11T01:57:29.579Z,93783.00
2023-03-11T01:58:29.563Z,93781.00
2023-03-11T01:59:29.589Z,93773.00
2023-03-11T02:00:29.541Z,93767.00
2023-03-11T02:01:29.621Z,93755.00
2023-03-11T02:02:29.535Z,93757.00
2023-03-11T02:03:29.528Z,93765.00
2023-03-11T02:04:29.500Z,93767.00
2023-03-11T02:05:29.505Z,93763.00
2023-03-11T02:06:29.487Z,93759.00
2023-03-11T02:07:29.514Z,93757.00
2023-03-11T02:08:29.464Z,93759.00
2023-03-11T02:09:29.473Z,93765.00
2023-03-11T02:10:29.446Z,93781.00
2023-03-11T02:11:29.440Z,93786.00
2023-03-11T02:12:29.428Z,93798.00
2023-03-11T02:13:29.420Z,93806.00
2023-03-11T02:14:29.422Z,93808.00
2023-03-11T02:15:29.454Z,93804.00
2023-03-11T02:16:29.431Z,93790.00
2023-03-11T02:17:29.384Z,93810.00
2023-03-11T02:18:29.375Z,93804.00
2023-03-11T02:19:29.371Z,93814.00
2023-03-11T02:20:29.354Z,93820.00
2023-03-11T02:21:29.350Z,93820.00
2023-03-11T02:22:29.338Z,93808.00
2023-03-11T02:23:29.343Z,93808.00
2023-03-11T02:24:29.322Z,93808.00
2023-03-11T02:25:29.354Z,93800.00
2023-03-11T02:26:29.304Z,93802.00
2023-03-11T02:27:29.300Z,93808.00
2023-03-11T02:28:29.288Z,93812.00
2023-03-11T02:29:29.278Z,93816.00
2023-03-11T02:30:29.270Z,93820.00
2023-03-11T02:31:29.324Z,93822.00
2023-03-11T02:32:29.428Z,93822.00
2023-03-11T02:33:29.237Z,93826.00
2023-03-11T02:34:29.253Z,93818.00
2023-03-11T02:35:29.221Z,93800.00
2023-03-11T02:36:29.212Z,93796.00
2023-03-11T02:37:29.203Z,93802.00
2023-03-11T02:38:29.202Z,93806.00
2023-03-11T02:39:29.185Z,93808.00
2023-03-11T02:40:29.173Z,93810.00
2023-03-11T02:41:29.164Z,93808.00
2023-03-11T02:42:29.180Z,93804.00
2023-03-11T02:43:29.145Z,93804.00
2023-03-11T02:44:29.133Z,93806.00
2023-03-11T02:45:29.125Z,93810.00
2023-03-11T02:46:29.156Z,93810.00
2023-03-11T02:47:29.135Z,93786.00
2023-03-11T02:48:29.313Z,93808.00
2023-03-11T02:49:29.085Z,93804.00
2023-03-11T02:50:29.082Z,93802.00
2023-03-11T02:51:29.064Z,93796.00
2023-03-11T02:52:29.062Z,93794.00
2023-03-11T02:53:29.050Z,93808.00
2023-03-11T02:54:29.041Z,93808.00
2023-03-11T02:55:29.024Z,93818.00
2023-03-11T02:56:29.018Z,93828.00
2023-03-11T02:57:29.010Z,93832.00
2023-03-11T02:58:28.997Z,93830.00
2023-03-11T02:59:28.999Z,93806.00
2023-03-11T03:00:28.981Z,93816.00
2023-03-11T03:01:28.970Z,93818.00
2023-03-11T03:02:28.965Z,93812.00
2023-03-11T03:03:28.993Z,93806.00
2023-03-11T03:04:29.049Z,93812.00
2023-03-11T03:05:28.930Z,93826.00
2023-03-11T03:06:28.934Z,93836.00
2023-03-11T03:07:28.915Z,93830.00
2023-03-11T03:08:28.908Z,93832.00
2023-03-11T03:09:28.894Z,93832.00
2023-03-11T03:10:28.886Z,93840.00
2023-03-11T03:11:28.875Z,93845.00
2023-03-11T03:12:28.877Z,93847.00
2023-03-11T03:13:28.862Z,93845.00
2023-03-11T03:14:28.864Z,93847.00
2023-03-11T03:15:28.848Z,93841.00
2023-03-11T03:16:28.952Z,93838.00
2023-03-11T03:17:28.891Z,93828.00
2023-03-11T03:19:28.829Z,93812.00
2023-03-11T03:20:28.793Z,93824.00
2023-03-11T03:21:28.784Z,93824.00
2023-03-11T03:22:28.773Z,93830.00
2023-03-11T03:23:28.772Z,93832.00
2023-03-11T03:24:28.753Z,93832.00
2023-03-11T03:25:28.760Z,93830.00
2023-03-11T03:26:28.745Z,93826.00
2023-03-11T03:27:28.725Z,93822.00
2023-03-11T03:28:28.718Z,93832.00
2023-03-11T03:29:29.496Z,93836.00
2023-03-11T03:30:28.696Z,93841.00
2023-03-11T03:31:28.779Z,93838.00
2023-03-11T03:32:28.718Z,93838.00
2023-03-11T03:33:28.673Z,93838.00
2023-03-11T03:34:28.678Z,93840.00
2023-03-11T03:35:28.677Z,93847.00
2023-03-11T03:36:28.646Z,93847.00
2023-03-11T03:37:28.634Z,93845.00
2023-03-11T03:38:28.622Z,93845.00
2023-03-11T03:39:30.589Z,93849.00
2023-03-11T03:40:28.605Z,93847.00
2023-03-11T03:41:28.629Z,93849.00
2023-03-11T03:42:28.587Z,93841.00
2023-03-11T03:43:28.595Z,93847.00
2023-03-11T03:44:28.569Z,93853.00
2023-03-11T03:45:28.561Z,93863.00
2023-03-11T03:46:28.550Z,93855.00
2023-03-11T03:47:28.544Z,93847.00
2023-03-11T03:48:28.540Z,93847.00
2023-03-11T03:49:28.525Z,93847.00
2023-03-11T03:50:28.517Z,93853.00
2023-03-11T03:51:28.537Z,93863.00
2023-03-11T03:52:28.508Z,93863.00
2023-03-11T03:53:28.484Z,93863.00
2023-03-11T03:54:28.858Z,93867.00
2023-03-11T03:55:28.469Z,93871.00
2023-03-11T03:56:28.465Z,93873.00
2023-03-11T03:57:28.451Z,93879.00
2023-03-11T03:58:28.443Z,93886.00
2023-03-11T03:59:28.429Z,93902.00
2023-03-11T04:00:28.425Z,93904.00
2023-03-11T04:01:28.424Z,93896.00
2023-03-11T04:02:28.450Z,93886.00
2023-03-11T04:03:28.486Z,93881.00
2023-03-11T04:04:28.384Z,93875.00
2023-03-11T04:05:28.374Z,93879.00
2023-03-11T04:06:28.379Z,93888.00
2023-03-11T04:07:28.380Z,93894.00
2023-03-11T04:08:28.349Z,93892.00
2023-03-11T04:09:28.340Z,93886.00
2023-03-11T04:10:28.345Z,93883.00
2023-03-11T04:11:28.321Z,93892.00
2023-03-11T04:12:28.307Z,93898.00
2023-03-11T04:13:28.300Z,93890.00
2023-03-11T04:14:28.294Z,93885.00
2023-03-11T04:15:28.288Z,93894.00
2023-03-11T04:16:28.356Z,93902.00
2023-03-11T04:17:28.265Z,93896.00
2023-03-11T04:18:28.252Z,93896.00
2023-03-11T04:19:28.248Z,93892.00
2023-03-11T04:20:28.239Z,93892.00
2023-03-11T04:21:28.229Z,93886.00
2023-03-11T04:22:28.235Z,93879.00
2023-03-11T04:23:28.389Z,93879.00
2023-03-11T04:24:28.200Z,93877.00
2023-03-11T04:25:28.191Z,93875.00
2023-03-11T04:26:28.182Z,93875.00
2023-03-11T04:27:28.169Z,93873.00
2023-03-11T04:28:28.154Z,93873.00
2023-03-11T04:29:28.181Z,93875.00
2023-03-11T04:30:28.163Z,93879.00
2023-03-11T04:31:28.136Z,93879.00
2023-03-11T04:32:28.161Z,93877.00
2023-03-11T04:33:28.132Z,93875.00
2023-03-11T04:34:28.112Z,93873.00
2023-03-11T04:35:28.146Z,93877.00
2023-03-11T04:36:28.082Z,93881.00
2023-03-11T04:37:28.081Z,93881.00
2023-03-11T04:38:28.092Z,93879.00
2023-03-11T04:39:28.117Z,93886.00
2023-03-11T04:40:28.078Z,93888.00
2023-03-11T04:41:28.060Z,93890.00
2023-03-11T04:42:28.027Z,93892.00
2023-03-11T04:43:28.057Z,93888.00
2023-03-11T04:44:28.058Z,93888.00
2023-03-11T04:45:28.001Z,93883.00
2023-03-11T04:46:28.088Z,93879.00
2023-03-11T04:47:27.982Z,93875.00
2023-03-11T04:48:27.978Z,93871.00
2023-03-11T04:49:27.975Z,93867.00
2023-03-11T04:50:27.946Z,93869.00
2023-03-11T04:51:27.941Z,93873.00
2023-03-11T04:52:27.937Z,93883.00
2023-03-11T04:53:27.918Z,93885.00
2023-03-11T04:54:27.918Z,93879.00
2023-03-11T04:55:27.941Z,93875.00
2023-03-11T04:56:27.898Z,93877.00
2023-03-11T04:57:27.879Z,93883.00
2023-03-11T04:58:27.867Z,93886.00
2023-03-11T04:59:27.859Z,93890.00
2023-03-11T05:00:27.860Z,93890.00
2023-03-11T05:01:27.890Z,93892.00
2023-03-11T05:02:27.833Z,93886.00
2023-03-11T05:03:27.874Z,93888.00
2023-03-11T05:04:27.858Z,93890.00
2023-03-11T05:05:27.811Z,93890.00
2023-03-11T05:06:27.797Z,93888.00
2023-03-11T05:07:27.799Z,93886.00
2023-03-11T05:08:27.781Z,93885.00
2023-03-11T05:09:27.805Z,93886.00
2023-03-11T05:10:29.222Z,93883.00
2023-03-11T05:11:27.780Z,93885.00
2023-03-11T05:12:27.742Z,93888.00
2023-03-11T05:13:27.732Z,93888.00
2023-03-11T05:14:27.751Z,93894.00
2023-03-11T05:15:27.713Z,93890.00
2023-03-11T05:16:27.787Z,93894.00
2023-03-11T05:17:27.701Z,93896.00
2023-03-11T05:18:27.688Z,93898.00
2023-03-11T05:19:27.691Z,93902.00
2023-03-11T05:20:27.670Z,93900.00
2023-03-11T05:21:27.661Z,93902.00
2023-03-11T05:22:27.674Z,93900.00
2023-03-11T05:23:27.641Z,93904.00
2023-03-11T05:24:27.631Z,93908.00
2023-03-11T05:25:27.621Z,93908.00
2023-03-11T05:26:27.637Z,93906.00
2023-03-11T05:27:27.638Z,93904.00
2023-03-11T05:28:27.601Z,93904.00
2023-03-11T05:29:27.589Z,93910.00
2023-03-11T05:30:27.592Z,93916.00
2023-03-11T05:31:27.632Z,93918.00
2023-03-11T05:32:27.596Z,93916.00
2023-03-11T05:33:27.556Z,93918.00
2023-03-11T05:34:27.548Z,93918.00
2023-03-11T05:35:27.595Z,93914.00
2023-03-11T05:36:27.525Z,93916.00
2023-03-11T05:37:27.516Z,93918.00
2023-03-11T05:38:27.517Z,93922.00
2023-03-11T05:39:27.497Z,93924.00
2023-03-11T05:40:27.489Z,93926.00
2023-03-11T05:41:27.494Z,93928.00
2023-03-11T05:42:27.471Z,93930.00
2023-03-11T05:43:27.485Z,93933.00
2023-03-11T05:44:27.452Z,93937.00
2023-03-11T05:45:27.448Z,93935.00
2023-03-11T05:46:27.542Z,93933.00
2023-03-11T05:47:27.434Z,93935.00
2023-03-11T05:48:27.414Z,93935.00
2023-03-11T05:49:27.408Z,93933.00
2023-03-11T05:50:27.401Z,93932.00
2023-03-11T05:51:27.393Z,93932.00
2023-03-11T05:52:27.384Z,93932.00
2023-03-11T05:53:27.370Z,93933.00
2023-03-11T05:54:27.362Z,93935.00
2023-03-11T05:55:27.356Z,93933.00
2023-03-11T05:56:27.347Z,93939.00
2023-03-11T05:57:27.326Z,93937.00
2023-03-11T05:58:27.366Z,93933.00
2023-03-11T05:59:27.334Z,93937.00
2023-03-11T06:00:27.305Z,93937.00
2023-03-11T06:01:27.295Z,93943.00
2023-03-11T06:02:27.285Z,93943.00
2023-03-11T06:03:27.281Z,93941.00
2023-03-11T06:04:27.405Z,93947.00
2023-03-11T06:05:27.279Z,93945.00
2023-03-11T06:06:27.249Z,93945.00
2023-03-11T06:07:27.263Z,93941.00
2023-03-11T06:08:27.232Z,93941.00
2023-03-11T06:09:27.217Z,93939.00
2023-03-11T06:10:27.217Z,93935.00
2023-03-11T06:11:27.202Z,93937.00
2023-03-11T06:12:27.197Z,93937.00
2023-03-11T06:13:27.177Z,93941.00
2023-03-11T06:14:27.167Z,93945.00
2023-03-11T06:15:27.194Z,93945.00
2023-03-11T06:16:27.249Z,93941.00
2023-03-11T06:17:29.338Z,93941.00
2023-03-11T06:18:27.138Z,93941.00
2023-03-11T06:19:27.124Z,93939.00
2023-03-11T06:20:27.110Z,93937.00
2023-03-11T06:21:27.108Z,93941.00
2023-03-11T06:22:27.092Z,93941.00
2023-03-11T06:23:27.092Z,93943.00
2023-03-11T06:24:27.078Z,93943.00
2023-03-11T06:25:27.068Z,93943.00
2023-03-11T06:26:27.057Z,93943.00
2023-03-11T06:27:27.050Z,93947.00
2023-03-11T07:08:26.672Z,94006.00
2023-03-11T10:08:24.985Z,94121.00
2023-03-11T10:09:25.002Z,94125.00
2023-03-11T10:14:24.930Z,94129.00
2023-03-11T10:15:24.949Z,94129.00
2023-03-11T10:16:25.026Z,94125.00
2023-03-11T10:17:24.913Z,94123.00
2023-03-11T10:18:24.892Z,94123.00
2023-03-11T10:19:24.882Z,94121.00
2023-03-11T10:20:24.895Z,94119.00
2023-03-11T10:21:25.745Z,94121.00
2023-03-11T10:22:24.860Z,94119.00
2023-03-11T10:23:24.841Z,94119.00
2023-03-11T10:24:24.841Z,94119.00
2023-03-11T10:25:24.826Z,94121.00
2023-03-11T10:26:24.816Z,94119.00
2023-03-11T10:27:24.812Z,94121.00
2023-03-11T10:28:24.820Z,94121.00
2023-03-11T10:29:24.789Z,94121.00
2023-03-11T10:30:24.797Z,94119.00
2023-03-11T10:31:24.862Z,94121.00
2023-03-11T10:32:24.837Z,94123.00
2023-03-11T10:33:24.755Z,94125.00
2023-03-11T10:34:24.744Z,94121.00
2023-03-11T10:35:24.735Z,94121.00
2023-03-11T10:36:24.731Z,94123.00
2023-03-11T10:37:27.445Z,94119.00
2023-03-11T10:38:24.708Z,94119.00
2023-03-11T10:39:24.719Z,94121.00
2023-03-11T10:40:24.754Z,94119.00
2023-03-11T10:41:24.686Z,94119.00
2023-03-11T10:42:24.668Z,94123.00
2023-03-11T10:43:24.660Z,94123.00
2023-03-11T10:44:24.654Z,94123.00
2023-03-11T10:45:24.638Z,94123.00
2023-03-11T10:46:24.628Z,94123.00
2023-03-11T10:47:24.642Z,94125.00
2023-03-11T10:48:24.617Z,94123.00
2023-03-11T10:49:24.602Z,94127.00
2023-03-11T10:50:24.593Z,94125.00
2023-03-11T10:51:24.585Z,94127.00
2023-03-11T10:52:24.577Z,94127.00
2023-03-11T10:53:24.565Z,94131.00
2023-03-11T10:54:24.551Z,94131.00
2023-03-11T10:55:24.545Z,94125.00
2023-03-11T10:56:24.560Z,94127.00
2023-03-11T10:57:24.525Z,94133.00
2023-03-11T10:58:24.520Z,94127.00
2023-03-11T10:59:24.537Z,94129.00
2023-03-11T11:00:24.502Z,94131.00
2023-03-11T11:01:24.536Z,94135.00
2023-03-11T11:02:24.478Z,94135.00
2023-03-11T11:03:24.501Z,94135.00
2023-03-11T11:04:24.485Z,94133.00
2023-03-11T11:05:24.459Z,94135.00
2023-03-11T11:06:24.442Z,94135.00
2023-03-11T11:07:24.432Z,94135.00
2023-03-11T11:08:24.419Z,94133.00
2023-03-11T11:09:26.756Z,94137.00
2023-03-11T11:10:24.404Z,94135.00
2023-03-11T11:11:24.397Z,94135.00
2023-03-11T11:12:24.386Z,94137.00
2023-03-11T11:13:24.378Z,94141.00
2023-03-11T11:14:24.372Z,94141.00
2023-03-11T11:15:24.364Z,94143.00
2023-03-11T11:16:24.402Z,94143.00
2023-03-11T11:17:24.337Z,94141.00
2023-03-11T11:18:24.338Z,94139.00
2023-03-11T11:19:24.345Z,94133.00
2023-03-11T11:20:24.313Z,94131.00
2023-03-11T11:21:24.302Z,94133.00
2023-03-11T11:22:24.331Z,94141.00
2023-03-11T11:23:24.284Z,94139.00
2023-03-11T11:24:24.306Z,94137.00
2023-03-11T11:25:24.379Z,94137.00
2023-03-11T11:26:24.281Z,94131.00
2023-03-11T11:27:24.249Z,94135.00
2023-03-11T11:28:24.238Z,94135.00
2023-03-11T11:29:24.228Z,94137.00
2023-03-11T11:30:24.228Z,94135.00
2023-03-11T11:31:24.213Z,94137.00
2023-03-11T11:32:24.269Z,94149.00
2023-03-11T11:33:24.202Z,94143.00
2023-03-11T11:34:24.185Z,94135.00
2023-03-11T11:35:24.250Z,94143.00
2023-03-11T11:36:24.187Z,94157.00
2023-03-11T11:37:24.156Z,94145.00
2023-03-11T11:38:24.142Z,94153.00
2023-03-11T11:39:24.145Z,94149.00
2023-03-11T11:40:24.129Z,94151.00
2023-03-11T11:41:24.117Z,94147.00
2023-03-11T11:42:24.103Z,94149.00
2023-03-11T11:43:24.102Z,94151.00
2023-03-11T11:44:24.086Z,94141.00
2023-03-11T11:45:24.079Z,94145.00
2023-03-11T11:46:24.099Z,94141.00
2023-03-11T11:47:24.058Z,94143.00
2023-03-11T11:48:24.048Z,94141.00
2023-03-11T11:49:24.045Z,94135.00
2023-03-11T11:50:24.039Z,94133.00
2023-03-11T11:51:24.047Z,94129.00
2023-03-11T11:52:24.015Z,94133.00
2023-03-11T11:53:24.000Z,94127.00
2023-03-11T11:54:23.998Z,94127.00
2023-03-11T11:55:23.991Z,94123.00
2023-03-11T11:56:23.973Z,94121.00
2023-03-11T11:57:23.964Z,94127.00
2023-03-11T11:58:23.955Z,94127.00
2023-03-11T11:59:23.954Z,94125.00
2023-03-11T12:00:23.938Z,94129.00
2023-03-11T12:01:23.932Z,94123.00
2023-03-11T12:02:23.918Z,94125.00
2023-03-11T12:03:23.981Z,94121.00
2023-03-11T12:04:23.915Z,94119.00
2023-03-11T12:05:23.959Z,94119.00
2023-03-11T12:06:23.883Z,94112.00
2023-03-11T12:07:23.898Z,94110.00
2023-03-11T12:08:23.865Z,94108.00
2023-03-11T12:09:23.852Z,94112.00
2023-03-11T12:10:24.275Z,94121.00
2023-03-11T12:11:23.838Z,94119.00
2023-03-11T12:12:23.821Z,94112.00
2023-03-11T12:13:23.827Z,94110.00
2023-03-11T12:14:23.803Z,94110.00
2023-03-11T12:15:23.793Z,94108.00
2023-03-11T12:16:23.789Z,94112.00
2023-03-11T12:17:23.778Z,94119.00
2023-03-11T12:18:23.777Z,94108.00
2023-03-11T12:19:23.757Z,94108.00
2023-03-11T12:20:23.751Z,94106.00
2023-03-11T12:21:23.941Z,94104.00
2023-03-11T12:22:23.732Z,94104.00
2023-03-11T12:23:23.750Z,94106.00
2023-03-11T12:24:23.712Z,94106.00
2023-03-11T12:25:23.705Z,94106.00
2023-03-11T12:26:23.699Z,94106.00
2023-03-11T12:27:23.690Z,94104.00
2023-03-11T12:28:23.680Z,94108.00
2023-03-11T12:29:23.664Z,94108.00
2023-03-11T12:30:23.656Z,94108.00
2023-03-11T12:31:23.683Z,94104.00
2023-03-11T12:32:23.704Z,94106.00
2023-03-11T12:33:23.629Z,94106.00
2023-03-11T12:34:23.619Z,94106.00
2023-03-11T12:35:23.611Z,94106.00
2023-03-11T12:36:23.634Z,94100.00
2023-03-11T12:37:23.596Z,94100.00
2023-03-11T12:38:23.583Z,94104.00
2023-03-11T12:39:23.634Z,94104.00
2023-03-11T12:40:23.568Z,94102.00
2023-03-11T12:41:23.557Z,94102.00
2023-03-11T12:42:23.545Z,94102.00
2023-03-11T12:43:23.537Z,94100.00
2023-03-11T12:44:23.532Z,94098.00
2023-03-11T12:45:23.521Z,94098.00
2023-03-11T12:46:23.541Z,94096.00
2023-03-11T12:47:23.511Z,94098.00
2023-03-11T12:48:23.491Z,94096.00
2023-03-11T12:49:23.490Z,94090.00
2023-03-11T12:50:23.470Z,94090.00
2023-03-11T12:51:23.461Z,94092.00
2023-03-11T12:52:23.459Z,94090.00
2023-03-11T12:53:23.445Z,94086.00
2023-03-11T12:54:23.436Z,94084.00
2023-03-11T12:55:23.454Z,94082.00
2023-03-11T12:56:23.423Z,94080.00
2023-03-11T12:57:23.412Z,94080.00
2023-03-11T12:58:23.909Z,94080.00
2023-03-11T12:59:23.400Z,94078.00
2023-03-11T13:00:23.390Z,94076.00
2023-03-11T13:01:23.387Z,94076.00
2023-03-11T13:02:23.440Z,94078.00
2023-03-11T13:03:23.357Z,94074.00
2023-03-11T13:04:23.346Z,94076.00
2023-03-11T13:05:23.345Z,94080.00
2023-03-11T13:06:23.332Z,94078.00
2023-03-11T13:07:23.319Z,94082.00
2023-03-11T13:08:23.311Z,94080.00
2023-03-11T13:09:23.334Z,94084.00
2023-03-11T13:10:23.291Z,94078.00
2023-03-11T13:11:23.315Z,94082.00
2023-03-11T13:12:23.275Z,94082.00
2023-03-11T13:13:23.268Z,94086.00
2023-03-11T13:14:23.260Z,94086.00
2023-03-11T13:15:23.247Z,94092.00
2023-03-11T13:16:23.370Z,94088.00
2023-03-11T13:17:23.253Z,94090.00
2023-03-11T13:18:23.227Z,94094.00
2023-03-11T13:19:23.208Z,94096.00
2023-03-11T13:20:24.764Z,94098.00
2023-03-11T13:21:23.192Z,94096.00
2023-03-11T13:22:23.183Z,94098.00
2023-03-11T13:23:23.174Z,94098.00
2023-03-11T13:24:23.171Z,94098.00
2023-03-11T13:25:23.155Z,94098.00
2023-03-11T13:26:23.154Z,94094.00
2023-03-11T13:27:23.164Z,94100.00
2023-03-11T13:28:23.125Z,94098.00
2023-03-11T13:29:23.117Z,94098.00
2023-03-11T13:30:23.110Z,94104.00
2023-03-11T13:31:23.194Z,94102.00
2023-03-11T13:32:23.188Z,94104.00
2023-03-11T13:33:23.095Z,94106.00
2023-03-11T13:34:23.075Z,94108.00
2023-03-11T13:35:23.062Z,94110.00
2023-03-11T13:36:23.059Z,94112.00
2023-03-11T13:37:23.050Z,94119.00
2023-03-11T13:38:23.055Z,94121.00
2023-03-11T13:39:23.105Z,94125.00
2023-03-11T13:40:23.017Z,94125.00
2023-03-11T13:41:23.006Z,94127.00
2023-03-11T13:42:23.002Z,94123.00
2023-03-11T13:43:23.015Z,94125.00
2023-03-11T13:44:22.978Z,94129.00
2023-03-11T13:45:22.979Z,94127.00
2023-03-11T13:46:22.960Z,94127.00
2023-03-11T13:47:22.950Z,94123.00
2023-03-11T13:48:22.952Z,94131.00
2023-03-11T13:49:22.940Z,94135.00
2023-03-11T13:50:22.922Z,94135.00
2023-03-11T13:51:22.913Z,94135.00
2023-03-11T13:52:22.909Z,94131.00
2023-03-11T13:53:22.987Z,94131.00
2023-03-11T13:54:24.863Z,94133.00
2023-03-11T13:55:22.884Z,94135.00
2023-03-11T13:56:22.874Z,94131.00
2023-03-11T13:57:22.862Z,94137.00
2023-03-11T13:58:22.843Z,94137.00
2023-03-11T13:59:22.868Z,94137.00
2023-03-11T14:00:22.832Z,94141.00
2023-03-11T14:01:22.924Z,94141.00
2023-03-11T14:02:22.818Z,94139.00
2023-03-11T14:03:22.801Z,94137.00
2023-03-11T14:04:22.818Z,94135.00
2023-03-11T14:05:22.782Z,94139.00
2023-03-11T14:06:22.776Z,94141.00
2023-03-11T14:07:22.799Z,94147.00
2023-03-11T14:08:22.756Z,94149.00
2023-03-11T14:09:22.747Z,94149.00
2023-03-11T14:10:22.743Z,94149.00
2023-03-11T14:11:22.728Z,94149.00
2023-03-11T14:12:22.718Z,94147.00
2023-03-11T14:13:22.712Z,94147.00
2023-03-11T14:14:22.765Z,94149.00
2023-03-11T14:15:22.727Z,94151.00
2023-03-11T14:16:22.713Z,94155.00
2023-03-11T14:17:22.669Z,94157.00
2023-03-11T14:18:22.660Z,94155.00
2023-03-11T14:19:22.649Z,94157.00
2023-03-11T14:20:22.698Z,94157.00
2023-03-11T14:21:22.635Z,94153.00
2023-03-11T14:22:22.622Z,94153.00
2023-03-11T14:23:22.615Z,94151.00
2023-03-11T14:24:22.602Z,94151.00
2023-03-11T14:25:22.597Z,94151.00
2023-03-11T14:26:22.604Z,94153.00
2023-03-11T14:27:22.575Z,94153.00
2023-03-11T14:28:22.567Z,94157.00
2023-03-11T14:29:22.556Z,94159.00
2023-03-11T14:30:22.543Z,94161.00
2023-03-11T14:31:22.603Z,94161.00
2023-03-11T14:32:22.572Z,94155.00
2023-03-11T14:33:22.517Z,94157.00
2023-03-11T14:34:22.509Z,94159.00
2023-03-11T14:35:22.511Z,94161.00
2023-03-11T14:36:22.490Z,94161.00
2023-03-11T14:37:22.484Z,94161.00
2023-03-11T14:38:22.475Z,94163.00
2023-03-11T14:39:22.467Z,94157.00
2023-03-11T14:40:22.452Z,94149.00
2023-03-11T14:41:22.447Z,94151.00
2023-03-11T14:42:22.431Z,94155.00
2023-03-11T14:43:22.426Z,94157.00
2023-03-11T14:44:22.418Z,94157.00
2023-03-11T14:45:22.406Z,94157.00
2023-03-11T14:46:22.481Z,94159.00
2023-03-11T14:47:22.413Z,94161.00
2023-03-11T14:48:22.383Z,94161.00
2023-03-11T14:49:22.366Z,94161.00
2023-03-11T14:50:22.361Z,94163.00
2023-03-11T14:51:22.350Z,94161.00
2023-03-11T14:52:22.335Z,94159.00
2023-03-11T14:53:22.334Z,94159.00
2023-03-11T14:54:22.360Z,94157.00
2023-03-11T14:55:22.309Z,94159.00
2023-03-11T14:56:22.309Z,94163.00
2023-03-11T14:57:22.292Z,94171.00
2023-03-11T14:58:22.284Z,94171.00
2023-03-11T14:59:22.284Z,94173.00
2023-03-11T15:00:22.261Z,94174.00
2023-03-11T15:01:22.275Z,94169.00
2023-03-11T15:02:22.245Z,94173.00
2023-03-11T15:03:22.271Z,94169.00
2023-03-11T15:04:22.985Z,94171.00
2023-03-11T15:05:22.217Z,94173.00
2023-03-11T15:06:22.220Z,94174.00
2023-03-11T15:07:22.196Z,94178.00
2023-03-11T15:08:22.206Z,94180.00
2023-03-11T15:09:22.199Z,94180.00
2023-03-11T15:10:22.184Z,94178.00
2023-03-11T15:11:22.162Z,94178.00
2023-03-11T15:12:22.152Z,94180.00
2023-03-11T15:13:22.143Z,94176.00
2023-03-11T15:14:22.145Z,94174.00
2023-03-11T15:15:22.122Z,94174.00
2023-03-11T15:16:22.154Z,94174.00
2023-03-11T15:17:35.359Z,94174.00
2023-03-11T15:18:22.091Z,94176.00
2023-03-11T15:19:22.113Z,94176.00
2023-03-11T15:20:22.080Z,94180.00
2023-03-11T15:21:22.071Z,94178.00
2023-03-11T15:22:22.065Z,94180.00
2023-03-11T15:23:22.050Z,94180.00
2023-03-11T15:24:22.046Z,94180.00
2023-03-11T15:25:22.036Z,94180.00
2023-03-11T15:26:22.033Z,94182.00
2023-03-11T15:27:22.012Z,94182.00
2023-03-11T15:28:22.010Z,94182.00
2023-03-11T15:29:22.006Z,94182.00
2023-03-11T15:30:21.989Z,94186.00
2023-03-11T15:31:22.005Z,94186.00
2023-03-11T15:32:21.992Z,94186.00
2023-03-11T15:33:21.988Z,94186.00
2023-03-11T15:34:21.953Z,94186.00
2023-03-11T15:35:21.972Z,94186.00
2023-03-11T15:36:21.934Z,94186.00
2023-03-11T15:37:21.935Z,94188.00
2023-03-11T15:38:21.917Z,94192.00
2023-03-11T15:39:21.907Z,94188.00
2023-03-11T15:40:23.412Z,94190.00
2023-03-11T15:41:21.890Z,94186.00
2023-03-11T15:42:21.876Z,94192.00
2023-03-11T15:43:21.867Z,94196.00
2023-03-11T15:44:21.861Z,94196.00
2023-03-11T15:45:21.845Z,94196.00
2023-03-11T15:46:21.911Z,94200.00
2023-03-11T15:47:21.829Z,94204.00
2023-03-11T15:48:21.820Z,94208.00
2023-03-11T15:49:21.812Z,94212.00
2023-03-11T15:50:24.931Z,94210.00
2023-03-11T15:51:21.819Z,94214.00
2023-03-11T15:52:21.796Z,94218.00
2023-03-11T15:53:21.779Z,94223.00
2023-03-11T15:54:21.767Z,94225.00
2023-03-11T15:55:21.759Z,94229.00
2023-03-11T15:56:21.756Z,94229.00
2023-03-11T15:57:21.733Z,94233.00
2023-03-11T15:58:21.721Z,94235.00
2023-03-11T15:59:21.723Z,94239.00
2023-03-11T16:00:21.709Z,94237.00
2023-03-11T16:01:21.696Z,94235.00
2023-03-11T16:02:21.685Z,94235.00
2023-03-11T16:03:21.675Z,94237.00
2023-03-11T16:04:21.796Z,94237.00
2023-03-11T16:05:21.672Z,94241.00
2023-03-11T16:06:21.648Z,94239.00
2023-03-11T16:07:32.989Z,94239.00
2023-03-11T16:08:21.630Z,94241.00
2023-03-11T16:09:21.619Z,94245.00
2023-03-11T16:10:21.607Z,94247.00
2023-03-11T16:11:21.599Z,94247.00
2023-03-11T16:12:21.595Z,94253.00
2023-03-11T16:13:21.593Z,94255.00
2023-03-11T16:14:21.580Z,94249.00
2023-03-11T16:15:21.564Z,94249.00
2023-03-11T16:16:21.672Z,94253.00
2023-03-11T16:17:21.544Z,94255.00
2023-03-11T16:18:22.027Z,94255.00
2023-03-11T16:19:21.525Z,94255.00
2023-03-11T16:20:21.524Z,94253.00
2023-03-11T16:21:21.506Z,94251.00
2023-03-11T16:22:21.495Z,94251.00
2023-03-11T16:23:21.530Z,94255.00